Time;durP1;ratioP1;P1;durP2;ratioP2;P2;SDS_P1;SDS_P2;PMS_P1;PMS_P2;Temp;Humidity;BMP_temperature;BMP_pressure;BME280_temperature;BME280_humidity;BME280_pressure;Samples;Min_cycle;Max_cycle;Signal;HPM_P1;HPM_P2
2023/01/19 00:01:22;;;;;;;8.63;0.80;;;;;;;;;;4963920;28;20054;-74
2023/01/19 00:03:51;;;;;;;12.70;1.20;;;;;;;;;;4964015;28;20050;-74
2023/01/19 00:06:18;;;;;;;14.73;1.33;;;;;;;;;;4960815;28;20059;-74
2023/01/19 00:08:48;;;;;;;12.23;1.13;;;;;;;;;;4963405;28;20419;-73
2023/01/19 00:11:16;;;;;;;15.90;0.98;;;;;;;;;;4968909;28;20054;-74
2023/01/19 00:13:48;;;;;;;10.05;0.88;;;;;;;;;;4963261;28;20106;-74
2023/01/19 00:16:16;;;;;;;15.90;2.20;;;;;;;;;;4953207;28;20087;-74
2023/01/19 00:18:44;;;;;;;14.13;1.15;;;;;;;;;;4964665;28;20054;-73
2023/01/19 00:21:13;;;;;;;11.95;1.20;;;;;;;;;;4968791;28;20502;-74
2023/01/19 00:23:41;;;;;;;16.58;1.17;;;;;;;;;;4966639;28;20129;-73
2023/01/19 00:26:09;;;;;;;7.93;1.13;;;;;;;;;;4966517;28;20130;-73
2023/01/19 00:28:36;;;;;;;8.10;0.98;;;;;;;;;;4967179;28;20051;-74
2023/01/19 00:31:03;;;;;;;9.05;0.80;;;;;;;;;;4962238;28;20058;-74
2023/01/19 00:33:30;;;;;;;8.30;0.88;;;;;;;;;;4966682;28;20506;-73
2023/01/19 00:35:58;;;;;;;7.30;0.60;;;;;;;;;;4964318;28;20506;-74
2023/01/19 00:38:26;;;;;;;7.90;0.77;;;;;;;;;;4968036;28;20054;-74
2023/01/19 00:40:53;;;;;;;15.75;1.00;;;;;;;;;;4961561;28;20062;-74
2023/01/19 00:43:21;;;;;;;9.57;0.65;;;;;;;;;;4959746;28;20437;-74
2023/01/19 00:45:48;;;;;;;9.30;0.40;;;;;;;;;;4966322;28;20117;-74
2023/01/19 00:48:15;;;;;;;11.75;1.13;;;;;;;;;;4962227;28;20062;-74
2023/01/19 00:50:42;;;;;;;11.18;0.88;;;;;;;;;;4966682;28;20053;-74
2023/01/19 00:53:10;;;;;;;14.57;0.90;;;;;;;;;;4962600;28;20055;-73
2023/01/19 00:55:38;;;;;;;21.90;1.15;;;;;;;;;;4962286;28;20051;-73
2023/01/19 00:58:06;;;;;;;13.18;0.80;;;;;;;;;;4964429;28;20053;-74
2023/01/19 01:00:33;;;;;;;10.43;0.75;;;;;;;;;;4955708;28;20086;-74
2023/01/19 01:03:00;;;;;;;26.13;1.40;;;;;;;;;;4962739;28;20062;-74
2023/01/19 01:05:28;;;;;;;10.52;0.85;;;;;;;;;;4962155;28;20121;-74
2023/01/19 01:07:55;;;;;;;7.75;0.75;;;;;;;;;;4964901;28;20061;-74
2023/01/19 01:10:23;;;;;;;8.10;0.80;;;;;;;;;;4954971;28;20051;-74
2023/01/19 01:12:52;;;;;;;17.85;1.20;;;;;;;;;;4957204;28;20501;-74
2023/01/19 01:15:20;;;;;;;13.38;0.73;;;;;;;;;;4962132;28;20498;-74
2023/01/19 01:17:47;;;;;;;11.43;1.00;;;;;;;;;;4942348;28;20080;-74
2023/01/19 01:20:16;;;;;;;7.75;0.60;;;;;;;;;;4929993;29;20055;-73
2023/01/19 01:22:45;;;;;;;10.32;0.93;;;;;;;;;;4933811;29;20058;-73
2023/01/19 01:25:12;;;;;;;13.80;0.70;;;;;;;;;;4929161;29;20490;-74
2023/01/19 01:27:40;;;;;;;13.20;2.20;;;;;;;;;;4924001;29;20079;-74
2023/01/19 01:30:09;;;;;;;5.18;0.60;;;;;;;;;;4930940;29;20046;-74
2023/01/19 01:32:36;;;;;;;13.48;0.88;;;;;;;;;;4929025;29;20074;-73
2023/01/19 01:35:04;;;;;;;15.70;0.85;;;;;;;;;;4931299;29;20062;-73
2023/01/19 01:37:32;;;;;;;14.05;1.33;;;;;;;;;;4930576;29;20163;-73
2023/01/19 01:39:59;;;;;;;17.02;1.65;;;;;;;;;;4925084;29;20055;-73
2023/01/19 01:42:27;;;;;;;10.27;0.57;;;;;;;;;;4948247;29;20134;-73
2023/01/19 01:44:55;;;;;;;11.15;0.77;;;;;;;;;;4932042;29;20078;-73
2023/01/19 01:47:27;;;;;;;15.38;1.17;;;;;;;;;;4927279;29;20052;-73
2023/01/19 01:49:56;;;;;;;10.00;0.60;;;;;;;;;;4922609;29;20059;-73
2023/01/19 01:52:25;;;;;;;9.23;0.88;;;;;;;;;;4933387;29;20055;-73
2023/01/19 01:54:53;;;;;;;18.90;0.85;;;;;;;;;;4930562;29;20063;-73
2023/01/19 01:57:21;;;;;;;15.70;1.00;;;;;;;;;;4931285;29;20047;-73
2023/01/19 01:59:50;;;;;;;13.32;0.85;;;;;;;;;;4927199;29;20125;-73
2023/01/19 02:05:08;;;;;;;17.52;0.93;;;;;;;;;;4947595;28;20398;-73
2023/01/19 02:13:19;;;;;;;9.45;1.33;;;;;;;;;;4949019;28;20055;-73
2023/01/19 02:15:46;;;;;;;11.40;0.70;;;;;;;;;;4941424;28;20105;-73
2023/01/19 02:18:14;;;;;;;17.20;0.70;;;;;;;;;;4969839;28;20046;-73
2023/01/19 02:20:43;;;;;;;9.80;1.13;;;;;;;;;;4961886;28;20561;-73
2023/01/19 02:23:15;;;;;;;9.43;0.65;;;;;;;;;;4958581;28;20047;-73
2023/01/19 02:25:44;;;;;;;10.35;1.35;;;;;;;;;;4963422;28;20109;-73
2023/01/19 02:28:12;;;;;;;16.55;1.17;;;;;;;;;;4964665;28;20062;-74
2023/01/19 02:30:40;;;;;;;14.70;1.30;;;;;;;;;;4963399;28;20517;-73
2023/01/19 02:33:07;;;;;;;16.27;0.73;;;;;;;;;;4969336;28;20508;-73
2023/01/19 02:35:36;;;;;;;13.48;1.02;;;;;;;;;;4971225;28;20053;-73
2023/01/19 02:38:04;;;;;;;11.35;0.63;;;;;;;;;;4966199;28;20047;-73
2023/01/19 02:40:31;;;;;;;10.57;0.55;;;;;;;;;;4964333;28;20489;-73
2023/01/19 02:43:00;;;;;;;10.40;0.73;;;;;;;;;;4966793;28;20754;-73
2023/01/19 02:45:28;;;;;;;13.55;1.80;;;;;;;;;;4957385;28;20055;-73
2023/01/19 02:47:55;;;;;;;7.82;0.60;;;;;;;;;;4960572;28;20077;-73
2023/01/19 02:50:37;;;;;;;18.08;0.98;;;;;;;;;;4965468;28;20139;-73
2023/01/19 02:53:10;;;;;;;15.98;0.77;;;;;;;;;;4966356;28;20110;-73
2023/01/19 02:55:37;;;;;;;16.60;1.20;;;;;;;;;;4966281;28;20050;-73
2023/01/19 02:58:10;;;;;;;12.07;1.08;;;;;;;;;;4967123;28;20047;-73
2023/01/19 03:00:42;;;;;;;9.97;0.80;;;;;;;;;;4963186;28;20047;-73
2023/01/19 03:03:15;;;;;;;19.08;1.58;;;;;;;;;;4961444;28;20046;-73
2023/01/19 03:05:42;;;;;;;;;;;;;;;;;;4967685;28;20525;-73
2023/01/19 03:08:14;;;;;;;15.57;1.35;;;;;;;;;;4965236;28;19938;-73
2023/01/19 03:10:45;;;;;;;16.88;1.38;;;;;;;;;;4966461;28;20317;-73
2023/01/19 03:13:17;;;;;;;16.90;1.23;;;;;;;;;;4960223;28;20055;-73
2023/01/19 03:15:47;;;;;;;19.70;1.58;;;;;;;;;;4968682;28;20062;-73
2023/01/19 03:18:16;;;;;;;15.60;2.17;;;;;;;;;;4968639;28;20050;-73
2023/01/19 03:20:44;;;;;;;14.93;1.13;;;;;;;;;;4967991;28;20047;-73
2023/01/19 03:23:13;;;;;;;21.20;2.00;;;;;;;;;;4966986;28;20443;-73
2023/01/19 03:25:42;;;;;;;19.80;1.45;;;;;;;;;;4961464;28;20054;-73
2023/01/19 03:28:10;;;;;;;15.93;1.13;;;;;;;;;;4960575;28;20043;-73
2023/01/19 03:30:40;;;;;;;16.75;1.35;;;;;;;;;;4959684;28;20054;-73
2023/01/19 03:33:09;;;;;;;14.50;1.10;;;;;;;;;;4963155;28;20058;-73
2023/01/19 03:35:37;;;;;;;18.90;1.23;;;;;;;;;;4964954;28;20050;-73
2023/01/19 03:38:07;;;;;;;17.92;1.23;;;;;;;;;;4963253;28;20434;-73
2023/01/19 03:40:36;;;;;;;13.50;0.95;;;;;;;;;;4966463;28;20077;-73
2023/01/19 03:43:03;;;;;;;19.80;1.48;;;;;;;;;;4964145;28;20052;-73
2023/01/19 03:45:31;;;;;;;21.20;1.38;;;;;;;;;;4967090;28;20054;-73
2023/01/19 03:48:00;;;;;;;17.15;1.63;;;;;;;;;;4966258;28;20063;-73
2023/01/19 03:50:29;;;;;;;14.43;0.85;;;;;;;;;;4967621;28;20054;-73
2023/01/19 03:53:05;;;;;;;8.23;0.70;;;;;;;;;;4967303;28;20498;-73
2023/01/19 03:55:33;;;;;;;10.00;0.77;;;;;;;;;;4966241;28;20059;-73
2023/01/19 03:58:00;;;;;;;12.13;0.75;;;;;;;;;;4964467;28;20043;-73
2023/01/19 04:00:27;;;;;;;12.88;1.35;;;;;;;;;;4962356;28;20387;-74
2023/01/19 04:02:55;;;;;;;16.48;1.52;;;;;;;;;;4966539;28;20058;-73
2023/01/19 04:05:25;;;;;;;7.35;0.60;;;;;;;;;;4964995;28;20326;-73
2023/01/19 04:07:53;;;;;;;7.88;0.70;;;;;;;;;;4968441;28;20062;-73
2023/01/19 04:10:20;;;;;;;13.88;0.95;;;;;;;;;;4969535;28;20046;-74
2023/01/19 04:12:47;;;;;;;23.40;1.00;;;;;;;;;;4968834;28;20049;-73
2023/01/19 04:15:15;;;;;;;11.55;0.68;;;;;;;;;;4968341;28;20050;-74
2023/01/19 04:17:42;;;;;;;17.23;0.98;;;;;;;;;;4960545;28;20047;-73
2023/01/19 04:20:10;;;;;;;12.45;0.73;;;;;;;;;;4968681;28;20536;-74
2023/01/19 04:22:39;;;;;;;11.73;0.80;;;;;;;;;;4967582;28;20047;-74
2023/01/19 04:25:07;;;;;;;11.27;1.23;;;;;;;;;;4969675;28;20470;-74
2023/01/19 04:27:34;;;;;;;15.13;1.45;;;;;;;;;;4962571;28;20058;-74
2023/01/19 04:30:02;;;;;;;11.52;0.85;;;;;;;;;;4965173;28;20054;-73
2023/01/19 04:32:29;;;;;;;9.98;0.70;;;;;;;;;;4967717;28;20047;-74
2023/01/19 04:34:57;;;;;;;18.13;1.55;;;;;;;;;;4965627;28;20053;-73
2023/01/19 04:37:24;;;;;;;4.20;0.70;;;;;;;;;;4964170;28;20074;-74
2023/01/19 04:39:52;;;;;;;13.80;0.85;;;;;;;;;;4965972;28;20157;-74
2023/01/19 04:42:20;;;;;;;16.27;1.45;;;;;;;;;;4962974;28;20065;-74
2023/01/19 04:44:47;;;;;;;9.75;1.05;;;;;;;;;;4962556;28;20054;-74
2023/01/19 04:47:15;;;;;;;11.95;0.98;;;;;;;;;;4967217;28;20705;-73
2023/01/19 04:49:42;;;;;;;12.80;0.88;;;;;;;;;;4965785;28;20455;-73
2023/01/19 04:52:09;;;;;;;9.63;1.23;;;;;;;;;;4962104;28;20047;-74
2023/01/19 04:54:36;;;;;;;10.95;1.25;;;;;;;;;;4960658;28;20051;-73
2023/01/19 04:57:05;;;;;;;10.18;1.00;;;;;;;;;;4966071;28;20406;-74
2023/01/19 04:59:32;;;;;;;12.85;1.10;;;;;;;;;;4967575;28;20054;-73
2023/01/19 05:01:59;;;;;;;11.85;1.20;;;;;;;;;;4965645;28;20046;-73
2023/01/19 05:04:27;;;;;;;20.38;1.63;;;;;;;;;;4965850;28;20046;-73
2023/01/19 05:06:54;;;;;;;18.75;1.35;;;;;;;;;;4960713;28;20062;-74
2023/01/19 05:09:22;;;;;;;15.98;1.05;;;;;;;;;;4959500;28;20051;-73
2023/01/19 05:11:49;;;;;;;14.52;1.02;;;;;;;;;;4968238;28;20050;-73
2023/01/19 05:14:17;;;;;;;18.70;3.03;;;;;;;;;;4958853;28;20054;-73
2023/01/19 05:16:45;;;;;;;14.23;1.88;;;;;;;;;;4967581;28;20085;-73
2023/01/19 05:19:12;;;;;;;10.93;1.65;;;;;;;;;;4965984;28;20062;-73
2023/01/19 05:21:39;;;;;;;9.88;1.20;;;;;;;;;;4969301;28;20109;-73
2023/01/19 05:24:07;;;;;;;15.98;2.00;;;;;;;;;;4963964;28;20051;-73
2023/01/19 05:26:34;;;;;;;19.95;1.45;;;;;;;;;;4963287;28;20039;-74
2023/01/19 05:29:01;;;;;;;8.93;1.27;;;;;;;;;;4955259;28;20163;-73
2023/01/19 05:31:30;;;;;;;14.77;1.77;;;;;;;;;;4960428;28;20414;-73
2023/01/19 05:33:57;;;;;;;18.08;1.77;;;;;;;;;;4965734;28;20089;-73
2023/01/19 05:36:25;;;;;;;13.88;1.30;;;;;;;;;;4965359;28;20055;-73
2023/01/19 05:38:53;;;;;;;12.02;1.65;;;;;;;;;;4965875;28;20433;-73
2023/01/19 05:41:20;;;;;;;12.77;1.08;;;;;;;;;;4963650;28;20395;-74
2023/01/19 05:43:47;;;;;;;22.77;3.60;;;;;;;;;;4963182;28;21633;-73
2023/01/19 05:46:14;;;;;;;22.02;2.45;;;;;;;;;;4960760;28;20061;-74
2023/01/19 05:48:43;;;;;;;10.70;1.40;;;;;;;;;;4967677;28;20055;-73
2023/01/19 05:51:11;;;;;;;28.90;8.50;;;;;;;;;;4962669;28;20534;-73
2023/01/19 05:53:38;;;;;;;19.63;2.75;;;;;;;;;;4961918;28;20066;-73
2023/01/19 05:56:07;;;;;;;24.65;2.72;;;;;;;;;;4962407;28;20049;-73
2023/01/19 05:58:34;;;;;;;23.13;3.45;;;;;;;;;;4960222;28;20046;-73
2023/01/19 06:01:04;;;;;;;21.77;1.90;;;;;;;;;;4961538;28;20050;-74
2023/01/19 06:03:31;;;;;;;14.35;1.30;;;;;;;;;;4956559;28;20050;-73
2023/01/19 06:06:00;;;;;;;11.70;1.50;;;;;;;;;;4961702;28;21484;-74
2023/01/19 06:08:27;;;;;;;8.98;1.25;;;;;;;;;;4957023;28;20062;-73
2023/01/19 06:10:55;;;;;;;10.13;1.23;;;;;;;;;;4959262;28;20131;-74
2023/01/19 06:13:22;;;;;;;14.88;2.22;;;;;;;;;;4963755;28;20573;-73
2023/01/19 06:15:49;;;;;;;13.05;1.40;;;;;;;;;;4960096;28;20062;-73
2023/01/19 06:18:16;;;;;;;11.00;1.08;;;;;;;;;;4965931;28;20050;-73
2023/01/19 06:20:44;;;;;;;14.90;1.50;;;;;;;;;;4967717;28;20046;-73
2023/01/19 06:23:12;;;;;;;17.00;1.60;;;;;;;;;;4958154;28;20501;-74
2023/01/19 06:25:40;;;;;;;14.10;1.92;;;;;;;;;;4963868;28;20532;-73
2023/01/19 06:28:07;;;;;;;29.40;2.10;;;;;;;;;;4963831;28;20066;-72
2023/01/19 06:30:34;;;;;;;26.10;2.22;;;;;;;;;;4963284;28;20078;-74
2023/01/19 06:33:01;;;;;;;24.27;2.08;;;;;;;;;;4963974;28;20049;-76
2023/01/19 06:35:28;;;;;;;43.53;3.58;;;;;;;;;;4961117;28;20051;-75
2023/01/19 06:37:56;;;;;;;25.02;2.63;;;;;;;;;;4964301;28;20509;-71
2023/01/19 06:40:24;;;;;;;17.98;2.28;;;;;;;;;;4964781;28;20752;-73
2023/01/19 06:42:52;;;;;;;27.88;2.05;;;;;;;;;;4966844;28;20043;-73
2023/01/19 06:45:19;;;;;;;19.75;2.10;;;;;;;;;;4966303;28;20494;-74
2023/01/19 06:47:47;;;;;;;27.65;2.45;;;;;;;;;;4979627;28;20062;-74
2023/01/19 06:50:15;;;;;;;17.75;2.28;;;;;;;;;;4962659;28;20053;-74
2023/01/19 06:52:42;;;;;;;19.17;2.90;;;;;;;;;;4965398;28;20055;-73
2023/01/19 06:55:10;;;;;;;24.40;2.97;;;;;;;;;;4959081;28;20390;-73
2023/01/19 06:57:39;;;;;;;18.63;2.55;;;;;;;;;;4962683;28;20229;-73
2023/01/19 07:00:07;;;;;;;28.02;2.33;;;;;;;;;;4959528;28;20082;-73
2023/01/19 07:02:35;;;;;;;19.88;1.98;;;;;;;;;;4961154;28;20130;-72
2023/01/19 07:05:02;;;;;;;20.55;1.90;;;;;;;;;;4963131;28;20055;-73
2023/01/19 07:07:30;;;;;;;25.67;2.97;;;;;;;;;;4962097;28;21812;-72
2023/01/19 07:09:57;;;;;;;19.67;1.70;;;;;;;;;;4960579;28;20646;-71
2023/01/19 07:12:24;;;;;;;21.52;1.90;;;;;;;;;;4965678;28;20425;-74
2023/01/19 07:14:53;;;;;;;22.52;1.77;;;;;;;;;;4964466;28;20122;-73
2023/01/19 07:17:20;;;;;;;17.08;1.80;;;;;;;;;;4955371;28;20055;-73
2023/01/19 07:19:47;;;;;;;17.70;1.95;;;;;;;;;;4946351;29;20447;-73
2023/01/19 07:22:15;;;;;;;19.40;2.40;;;;;;;;;;4932490;29;20058;-74
2023/01/19 07:24:42;;;;;;;18.30;3.72;;;;;;;;;;4949340;28;20051;-73
2023/01/19 07:27:10;;;;;;;17.25;1.75;;;;;;;;;;4943808;28;20078;-73
2023/01/19 07:29:38;;;;;;;22.58;2.25;;;;;;;;;;4932872;29;20615;-73
2023/01/19 07:32:06;;;;;;;20.45;2.05;;;;;;;;;;4951171;29;20043;-74
2023/01/19 07:34:35;;;;;;;22.35;2.80;;;;;;;;;;4946480;28;20070;-73
2023/01/19 07:37:02;;;;;;;18.95;1.98;;;;;;;;;;4947156;29;20131;-72
2023/01/19 07:39:30;;;;;;;29.25;3.50;;;;;;;;;;4932880;29;20158;-73
2023/01/19 07:41:58;;;;;;;20.63;3.25;;;;;;;;;;4949109;29;20061;-73
2023/01/19 07:44:26;;;;;;;21.63;2.45;;;;;;;;;;4946949;29;20071;-73
2023/01/19 07:46:53;;;;;;;23.13;3.67;;;;;;;;;;4951021;29;20051;-73
2023/01/19 07:49:21;;;;;;;28.75;2.75;;;;;;;;;;4948869;29;20059;-73
2023/01/19 07:51:49;;;;;;;30.65;3.20;;;;;;;;;;4931027;29;20074;-73
2023/01/19 07:54:16;;;;;;;25.65;2.28;;;;;;;;;;4950475;28;20051;-74
2023/01/19 07:56:43;;;;;;;22.77;2.75;;;;;;;;;;4944119;29;20054;-73
2023/01/19 07:59:10;;;;;;;16.90;2.15;;;;;;;;;;4929524;29;20055;-73
2023/01/19 08:01:38;;;;;;;19.83;3.53;;;;;;;;;;4952349;28;20047;-73
2023/01/19 08:04:05;;;;;;;23.13;3.13;;;;;;;;;;4927498;29;20051;-73
2023/01/19 08:06:35;;;;;;;25.75;2.53;;;;;;;;;;4935339;29;20055;-73
2023/01/19 08:09:04;;;;;;;23.73;2.45;;;;;;;;;;4933819;29;20059;-73
2023/01/19 08:11:31;;;;;;;27.10;2.97;;;;;;;;;;4950925;29;20058;-73
2023/01/19 08:13:59;;;;;;;20.60;3.53;;;;;;;;;;4947598;28;20047;-73
2023/01/19 08:16:26;;;;;;;31.27;4.32;;;;;;;;;;4950036;28;20090;-73
2023/01/19 08:18:54;;;;;;;33.67;6.50;;;;;;;;;;4967624;28;20074;-72
2023/01/19 08:21:21;;;;;;;27.35;2.70;;;;;;;;;;4962575;28;20105;-73
2023/01/19 08:23:53;;;;;;;22.40;2.60;;;;;;;;;;4960669;28;20133;-73
2023/01/19 08:26:23;;;;;;;19.00;2.33;;;;;;;;;;4966919;28;20105;-73
2023/01/19 08:28:50;;;;;;;24.20;2.78;;;;;;;;;;4964952;28;20117;-73
2023/01/19 08:31:17;;;;;;;17.40;2.35;;;;;;;;;;4964555;28;20378;-74
2023/01/19 08:33:44;;;;;;;24.00;2.38;;;;;;;;;;4964044;28;20179;-72
2023/01/19 08:36:12;;;;;;;12.98;2.10;;;;;;;;;;4960131;28;20073;-71
2023/01/19 08:38:42;;;;;;;20.60;2.47;;;;;;;;;;4968517;28;20482;-72
2023/01/19 08:41:11;;;;;;;19.17;2.45;;;;;;;;;;4965235;28;20482;-72
2023/01/19 08:43:38;;;;;;;22.20;2.55;;;;;;;;;;4967556;28;20520;-70
2023/01/19 08:46:06;;;;;;;14.15;1.90;;;;;;;;;;4964567;28;20043;-71
2023/01/19 08:48:33;;;;;;;10.80;1.70;;;;;;;;;;4971197;28;20059;-71
2023/01/19 08:51:00;;;;;;;17.05;1.98;;;;;;;;;;4967841;28;20054;-71
2023/01/19 08:53:27;;;;;;;10.68;0.98;;;;;;;;;;4969897;28;20532;-73
2023/01/19 08:55:58;;;;;;;11.52;1.33;;;;;;;;;;4964489;28;20273;-71
2023/01/19 08:58:27;;;;;;;17.73;1.42;;;;;;;;;;4963192;28;20062;-72
2023/01/19 09:00:54;;;;;;;13.25;1.88;;;;;;;;;;4967056;28;20513;-72
2023/01/19 09:03:22;;;;;;;15.50;1.77;;;;;;;;;;4963409;28;20042;-74
2023/01/19 09:05:49;;;;;;;10.18;1.65;;;;;;;;;;4966165;28;20071;-74
2023/01/19 09:08:16;;;;;;;15.10;1.77;;;;;;;;;;4961606;28;20051;-74
2023/01/19 09:10:47;;;;;;;9.10;1.58;;;;;;;;;;4967369;28;20042;-71
2023/01/19 09:13:15;;;;;;;12.23;1.60;;;;;;;;;;4961152;28;20051;-71
2023/01/19 09:15:44;;;;;;;16.48;1.77;;;;;;;;;;4963169;28;20475;-71
2023/01/19 09:18:12;;;;;;;10.63;1.15;;;;;;;;;;4958427;28;20082;-71
2023/01/19 09:20:41;;;;;;;21.25;1.85;;;;;;;;;;4962134;28;20698;-71
2023/01/19 09:23:10;;;;;;;14.23;1.33;;;;;;;;;;4967878;28;20057;-70
2023/01/19 09:25:37;;;;;;;10.30;1.15;;;;;;;;;;4965300;28;20086;-71
2023/01/19 09:28:05;;;;;;;12.05;1.45;;;;;;;;;;4957952;28;20043;-71
2023/01/19 09:30:32;;;;;;;15.10;1.40;;;;;;;;;;4962645;28;20050;-71
2023/01/19 09:33:05;;;;;;;18.05;1.55;;;;;;;;;;4964660;28;20046;-71
2023/01/19 09:35:32;;;;;;;17.30;1.88;;;;;;;;;;4962131;28;20410;-71
2023/01/19 09:37:59;;;;;;;17.85;2.10;;;;;;;;;;4965352;28;20058;-71
2023/01/19 09:40:27;;;;;;;11.18;1.40;;;;;;;;;;4963949;28;20051;-71
2023/01/19 09:42:58;;;;;;;14.88;1.40;;;;;;;;;;4966167;28;20046;-71
2023/01/19 09:45:30;;;;;;;14.90;1.35;;;;;;;;;;4968370;28;20059;-71
2023/01/19 09:47:58;;;;;;;13.38;1.38;;;;;;;;;;4968573;28;20521;-70
2023/01/19 09:50:28;;;;;;;10.52;1.33;;;;;;;;;;4966974;28;20058;-71
2023/01/19 09:52:56;;;;;;;12.13;1.40;;;;;;;;;;4969204;28;20066;-71
2023/01/19 09:55:26;;;;;;;16.25;1.88;;;;;;;;;;4964298;28;20073;-71
2023/01/19 09:57:53;;;;;;;17.55;1.58;;;;;;;;;;4968205;28;20096;-71
2023/01/19 10:00:23;;;;;;;16.77;2.17;;;;;;;;;;4963104;28;20078;-71
2023/01/19 10:02:53;;;;;;;18.48;2.28;;;;;;;;;;4968036;28;20054;-71
2023/01/19 10:05:29;;;;;;;14.77;1.67;;;;;;;;;;4966804;28;20054;-71
2023/01/19 10:08:08;;;;;;;25.08;1.80;;;;;;;;;;4966461;28;20082;-71
2023/01/19 10:10:36;;;;;;;13.15;1.83;;;;;;;;;;4964071;28;20063;-71
2023/01/19 10:13:17;;;;;;;15.80;1.95;;;;;;;;;;4964304;28;20105;-71
2023/01/19 10:15:49;;;;;;;12.95;1.60;;;;;;;;;;4964518;28;20066;-71
2023/01/19 10:18:19;;;;;;;16.38;1.80;;;;;;;;;;4966935;28;20049;-71
2023/01/19 10:20:50;;;;;;;13.63;1.52;;;;;;;;;;4963398;28;20062;-71
2023/01/19 10:23:25;;;;;;;7.03;1.00;;;;;;;;;;4964649;28;20521;-71
2023/01/19 10:25:53;;;;;;;10.18;1.10;;;;;;;;;;4967442;28;20061;-71
2023/01/19 10:28:23;;;;;;;4.90;0.88;;;;;;;;;;4970819;28;20051;-71
2023/01/19 10:30:50;;;;;;;12.90;1.65;;;;;;;;;;4965530;28;20403;-71
2023/01/19 10:33:18;;;;;;;9.07;1.48;;;;;;;;;;4968108;28;20042;-70
2023/01/19 10:35:47;;;;;;;9.23;1.52;;;;;;;;;;4969768;28;20585;-71
2023/01/19 10:38:18;;;;;;;10.45;1.48;;;;;;;;;;4967934;28;20569;-71
2023/01/19 10:40:48;;;;;;;14.10;0.93;;;;;;;;;;4967430;28;20074;-71
2023/01/19 10:43:46;;;;;;;9.88;0.98;;;;;;;;;;4970277;28;20077;-71
2023/01/19 10:46:23;;;;;;;10.20;1.30;;;;;;;;;;4887844;29;20049;-71
2023/01/19 10:48:52;;;;;;;9.43;0.95;;;;;;;;;;4953633;28;21316;-71
2023/01/19 10:51:19;;;;;;;14.15;1.77;;;;;;;;;;4968104;28;20057;-71
2023/01/19 10:53:56;;;;;;;10.25;1.40;;;;;;;;;;4963011;28;20051;-71
2023/01/19 10:56:27;;;;;;;9.48;1.80;;;;;;;;;;4968334;28;20073;-71
2023/01/19 10:58:55;;;;;;;7.15;1.42;;;;;;;;;;4966833;28;20050;-71
2023/01/19 11:01:23;;;;;;;8.73;1.00;;;;;;;;;;4970277;28;20054;-71
2023/01/19 11:03:50;;;;;;;12.32;1.35;;;;;;;;;;4970004;28;20487;-71
2023/01/19 11:06:35;;;;;;;12.68;2.03;;;;;;;;;;4966510;28;20050;-71
2023/01/19 11:09:16;;;;;;;13.40;1.80;;;;;;;;;;4961604;28;20063;-70
2023/01/19 11:11:44;;;;;;;17.08;1.77;;;;;;;;;;4959551;28;20642;-70
2023/01/19 11:14:13;;;;;;;13.85;1.40;;;;;;;;;;4964282;28;20043;-70
2023/01/19 11:16:41;;;;;;;12.27;1.15;;;;;;;;;;4968751;28;20057;-70
2023/01/19 11:19:17;;;;;;;13.05;1.17;;;;;;;;;;4969478;28;20050;-70
2023/01/19 11:21:45;;;;;;;9.77;1.02;;;;;;;;;;4968613;28;20058;-71
2023/01/19 11:24:15;;;;;;;11.13;1.05;;;;;;;;;;4969296;28;20046;-70
2023/01/19 11:26:43;;;;;;;11.45;1.05;;;;;;;;;;4965316;28;20043;-70
2023/01/19 11:29:16;;;;;;;7.80;1.08;;;;;;;;;;4964806;28;20047;-70
2023/01/19 11:31:44;;;;;;;10.40;1.02;;;;;;;;;;4968568;28;20050;-70
2023/01/19 11:34:23;;;;;;;7.72;1.20;;;;;;;;;;4964396;28;20050;-70
2023/01/19 11:36:56;;;;;;;13.27;1.15;;;;;;;;;;4967716;28;20042;-70
2023/01/19 11:39:26;;;;;;;4.78;0.70;;;;;;;;;;4968524;28;20055;-70
2023/01/19 11:41:55;;;;;;;6.32;0.90;;;;;;;;;;4969962;28;20058;-70
2023/01/19 11:44:24;;;;;;;7.35;0.75;;;;;;;;;;4968239;28;20053;-70
2023/01/19 11:46:54;;;;;;;7.82;1.13;;;;;;;;;;4969255;28;20486;-70
2023/01/19 11:49:24;;;;;;;8.10;0.70;;;;;;;;;;4969768;28;20053;-70
2023/01/19 11:51:55;;;;;;;8.10;0.88;;;;;;;;;;4965630;28;20055;-70
2023/01/19 11:54:26;;;;;;;5.03;0.70;;;;;;;;;;4969525;28;20055;-70
2023/01/19 11:56:54;;;;;;;10.13;0.88;;;;;;;;;;4968785;28;20256;-70
2023/01/19 11:59:23;;;;;;;11.23;1.75;;;;;;;;;;4968470;28;20397;-70
2023/01/19 12:01:53;;;;;;;15.02;1.10;;;;;;;;;;4966274;28;20078;-70
2023/01/19 12:04:22;;;;;;;10.13;1.25;;;;;;;;;;4963644;28;20043;-70
2023/01/19 12:06:50;;;;;;;10.15;1.05;;;;;;;;;;4969274;28;20105;-71
2023/01/19 12:09:20;;;;;;;10.52;1.13;;;;;;;;;;4958895;28;20135;-70
2023/01/19 12:11:51;;;;;;;8.63;1.17;;;;;;;;;;4958594;28;20050;-71
2023/01/19 12:14:22;;;;;;;7.10;0.88;;;;;;;;;;4959320;28;20554;-70
2023/01/19 12:16:51;;;;;;;22.20;1.45;;;;;;;;;;4961969;28;20054;-70
2023/01/19 12:19:20;;;;;;;7.97;1.27;;;;;;;;;;4959463;28;20055;-70
2023/01/19 12:21:47;;;;;;;9.35;1.08;;;;;;;;;;4963850;28;20055;-70
2023/01/19 12:24:16;;;;;;;7.40;1.05;;;;;;;;;;4962775;28;20050;-70
2023/01/19 12:26:49;;;;;;;14.52;1.15;;;;;;;;;;4966843;28;20065;-70
2023/01/19 12:29:20;;;;;;;9.82;1.25;;;;;;;;;;4965404;28;20291;-70
2023/01/19 12:32:08;;;;;;;11.18;1.55;;;;;;;;;;4965785;28;20458;-70
2023/01/19 12:34:42;;;;;;;11.60;2.08;;;;;;;;;;4965128;28;20125;-69
2023/01/19 12:37:25;;;;;;;12.82;1.30;;;;;;;;;;4967581;28;20054;-69
2023/01/19 12:39:52;;;;;;;7.80;1.00;;;;;;;;;;4965937;28;20412;-69
2023/01/19 12:42:19;;;;;;;10.43;0.70;;;;;;;;;;4966349;28;20051;-69
2023/01/19 12:44:48;;;;;;;14.48;2.22;;;;;;;;;;4969465;28;20057;-69
2023/01/19 12:47:21;;;;;;;11.65;0.82;;;;;;;;;;4962866;28;20398;-69
2023/01/19 12:49:50;;;;;;;12.88;1.67;;;;;;;;;;4969093;28;20063;-69
2023/01/19 12:52:29;;;;;;;19.80;1.40;;;;;;;;;;4965086;28;20122;-69
2023/01/19 12:55:02;;;;;;;15.32;1.15;;;;;;;;;;4960471;28;20130;-69
2023/01/19 12:57:32;;;;;;;7.00;1.30;;;;;;;;;;4966080;28;20057;-70
2023/01/19 13:00:01;;;;;;;11.93;1.77;;;;;;;;;;4961187;28;20050;-70
2023/01/19 13:02:41;;;;;;;11.05;1.90;;;;;;;;;;4965939;28;20055;-70
2023/01/19 13:05:13;;;;;;;13.80;2.78;;;;;;;;;;4965283;28;20039;-70
2023/01/19 13:07:58;;;;;;;10.02;2.00;;;;;;;;;;4966851;28;20517;-70
2023/01/19 13:10:43;;;;;;;7.00;1.50;;;;;;;;;;4966864;28;20090;-69
2023/01/19 13:13:17;;;;;;;11.13;1.60;;;;;;;;;;4933381;28;20066;-68
2023/01/19 13:15:45;;;;;;;6.60;0.85;;;;;;;;;;4967766;28;20054;-68
2023/01/19 13:18:18;;;;;;;6.20;0.60;;;;;;;;;;4962864;28;20061;-68
2023/01/19 13:20:47;;;;;;;8.07;0.77;;;;;;;;;;4967988;28;20078;-69
2023/01/19 13:23:19;;;;;;;8.13;0.90;;;;;;;;;;4968935;28;20146;-69
2023/01/19 13:25:51;;;;;;;6.03;0.80;;;;;;;;;;4963293;28;20050;-69
2023/01/19 13:28:19;;;;;;;8.70;0.80;;;;;;;;;;4968332;28;20110;-68
2023/01/19 13:31:01;;;;;;;13.18;1.83;;;;;;;;;;4965827;28;20059;-69
2023/01/19 13:33:31;;;;;;;5.05;0.82;;;;;;;;;;4964565;28;20154;-69
2023/01/19 13:35:58;;;;;;;33.53;10.25;;;;;;;;;;4958046;28;20086;-70
2023/01/19 13:38:27;;;;;;;14.25;3.05;;;;;;;;;;4964237;28;20507;-70
2023/01/19 13:40:55;;;;;;;15.13;1.92;;;;;;;;;;4962162;28;20051;-70
2023/01/19 13:43:25;;;;;;;9.00;1.58;;;;;;;;;;4963720;28;20047;-69
2023/01/19 13:45:52;;;;;;;12.70;1.63;;;;;;;;;;4958764;28;20043;-69
2023/01/19 13:48:23;;;;;;;9.02;1.50;;;;;;;;;;4963623;28;20063;-70
2023/01/19 13:50:57;;;;;;;17.38;1.67;;;;;;;;;;4966960;28;20449;-74
2023/01/19 13:53:25;;;;;;;6.00;1.33;;;;;;;;;;4966018;28;20051;-71
2023/01/19 13:56:06;;;;;;;11.23;1.48;;;;;;;;;;4966762;28;20051;-71
2023/01/19 13:58:33;;;;;;;12.40;1.35;;;;;;;;;;4963628;28;20046;-71
2023/01/19 14:01:01;;;;;;;9.15;1.90;;;;;;;;;;4970035;28;20058;-71
2023/01/19 14:03:29;;;;;;;5.80;1.17;;;;;;;;;;4971430;28;20058;-71
2023/01/19 14:05:56;;;;;;;6.28;0.93;;;;;;;;;;4966627;28;20042;-70
2023/01/19 14:08:24;;;;;;;6.72;1.10;;;;;;;;;;4969408;28;20043;-71
2023/01/19 14:11:01;;;;;;;8.63;1.25;;;;;;;;;;4970568;28;20478;-72
2023/01/19 14:13:29;;;;;;;8.75;1.10;;;;;;;;;;4966714;28;20051;-71
2023/01/19 14:15:57;;;;;;;10.27;2.00;;;;;;;;;;4971238;28;20046;-71
2023/01/19 14:18:27;;;;;;;9.30;0.98;;;;;;;;;;4966468;28;20058;-70
2023/01/19 14:21:00;;;;;;;7.28;1.13;;;;;;;;;;4967669;28;20154;-70
2023/01/19 14:23:39;;;;;;;8.50;1.33;;;;;;;;;;4970768;28;20454;-71
2023/01/19 14:26:06;;;;;;;5.90;0.70;;;;;;;;;;4965228;28;20054;-71
2023/01/19 14:28:38;;;;;;;12.45;1.35;;;;;;;;;;4967865;28;20528;-71
2023/01/19 14:31:21;;;;;;;5.82;1.38;;;;;;;;;;4964529;28;20062;-71
2023/01/19 14:33:49;;;;;;;5.53;0.60;;;;;;;;;;4960940;28;20070;-70
2023/01/19 14:36:24;;;;;;;7.75;0.52;;;;;;;;;;4968037;28;20046;-70
2023/01/19 14:38:52;;;;;;;3.72;0.50;;;;;;;;;;4969870;28;20482;-71
2023/01/19 14:41:23;;;;;;;4.03;0.47;;;;;;;;;;4971013;28;20043;-70
2023/01/19 14:43:51;;;;;;;8.32;0.63;;;;;;;;;;4967712;28;20050;-70
2023/01/19 14:46:18;;;;;;;3.67;0.60;;;;;;;;;;4970702;28;20058;-70
2023/01/19 14:48:47;;;;;;;5.85;1.00;;;;;;;;;;4967444;28;20054;-70
2023/01/19 14:51:17;;;;;;;7.40;0.80;;;;;;;;;;4969956;28;20062;-70
2023/01/19 14:53:49;;;;;;;4.25;0.70;;;;;;;;;;4967764;28;20047;-70